createdAt,value
2022-12-11T00:01:19.646Z,100382.09
2022-12-11T00:03:48.889Z,100396.56
2022-12-11T00:06:21.175Z,100406.66
2022-12-11T00:08:51.905Z,100400.63
2022-12-11T00:11:20.589Z,100392.06
2022-12-11T00:13:49.024Z,100393.84
2022-12-11T00:16:19.543Z,100384.28
2022-12-11T00:18:50.875Z,100389.84
2022-12-11T00:21:19.325Z,100383.78
2022-12-11T00:23:47.635Z,100376.19
2022-12-11T00:26:17.290Z,100375.31
2022-12-11T00:28:46.516Z,100369.34
2022-12-11T00:31:19.304Z,100380.19
2022-12-11T00:33:50.915Z,100366.88
2022-12-11T00:36:25.094Z,100354.59
2022-12-11T00:38:54.665Z,100350.28
2022-12-11T00:41:23.725Z,100345.97
2022-12-11T00:43:52.499Z,100334.53
2022-12-11T00:46:20.950Z,100336.34
2022-12-11T00:48:50.845Z,100339.84
2022-12-11T00:51:19.584Z,100339.81
2022-12-11T00:53:48.365Z,100342.47
2022-12-11T00:56:22.624Z,100340.75
2022-12-11T00:58:51.365Z,100335.44
2022-12-11T01:01:25.508Z,100332.75
2022-12-11T01:03:54.935Z,100331.00
2022-12-11T01:06:26.768Z,100335.47
2022-12-11T01:09:14.333Z,100341.88
2022-12-11T01:11:44.295Z,100346.28
2022-12-11T01:14:13.083Z,100354.31
2022-12-11T01:16:41.484Z,100351.75
2022-12-11T01:19:10.064Z,100361.53
2022-12-11T01:21:38.360Z,100348.31
2022-12-11T01:24:07.240Z,100343.97
2022-12-11T01:26:35.610Z,100340.59
2022-12-11T01:29:04.061Z,100339.81
2022-12-11T01:31:32.468Z,100339.09
2022-12-11T01:34:00.859Z,100348.09
2022-12-11T01:36:29.500Z,100342.16
2022-12-11T01:38:58.081Z,100343.13
2022-12-11T01:41:26.457Z,100344.06
2022-12-11T01:43:58.996Z,100353.97
2022-12-11T01:46:28.585Z,100350.75
2022-12-11T01:48:57.676Z,100354.47
2022-12-11T01:51:26.458Z,100356.31
2022-12-11T01:54:09.026Z,100353.81
2022-12-11T01:56:39.104Z,100352.06
2022-12-11T01:59:09.346Z,100345.97
2022-12-11T02:01:52.155Z,100338.13
2022-12-11T02:04:25.017Z,100339.88
2022-12-11T02:06:54.607Z,100339.88
2022-12-11T02:09:32.675Z,100335.47
2022-12-11T02:12:19.524Z,100328.34
2022-12-11T02:15:17.640Z,100324.81
2022-12-11T02:18:03.107Z,100325.13
2022-12-11T02:20:55.745Z,100319.78
2022-12-11T02:24:07.276Z,100327.97
2022-12-11T02:27:12.665Z,100322.78
2022-12-11T02:29:49.444Z,100332.63
2022-12-11T02:32:49.627Z,100341.59
2022-12-11T02:35:29.505Z,100340.91
2022-12-11T02:38:21.468Z,100348.91
2022-12-11T02:40:51.420Z,100354.22
2022-12-11T02:43:21.361Z,100367.59
2022-12-11T02:45:51.232Z,100360.50
2022-12-11T02:48:21.028Z,100356.09
2022-12-11T02:50:52.629Z,100356.88
2022-12-11T02:53:25.497Z,100355.06
2022-12-11T02:56:05.018Z,100359.50
2022-12-11T02:58:35.744Z,100355.91
2022-12-11T03:01:04.262Z,100361.22
2022-12-11T03:03:32.633Z,100361.31
2022-12-11T03:06:01.613Z,100374.63
2022-12-11T03:08:30.144Z,100371.97
2022-12-11T03:10:58.464Z,100366.75
2022-12-11T03:13:26.904Z,100362.34
2022-12-11T03:16:18.976Z,100369.44
2022-12-11T03:19:00.490Z,100372.97
2022-12-11T03:21:36.383Z,100368.63
2022-12-11T03:24:17.295Z,100366.13
2022-12-11T03:26:56.207Z,100355.41
2022-12-11T03:29:36.867Z,100347.44
2022-12-11T03:32:15.903Z,100358.84
2022-12-11T03:35:10.453Z,100366.78
2022-12-11T03:37:42.312Z,100367.69
2022-12-11T03:40:17.664Z,100355.41
2022-12-11T03:42:49.786Z,100356.34
2022-12-11T03:45:20.325Z,100361.66
2022-12-11T03:47:51.435Z,100365.19
2022-12-11T03:50:21.629Z,100353.75
2022-12-11T03:52:51.906Z,100343.19
2022-12-11T03:55:22.403Z,100342.41
2022-12-11T03:57:50.948Z,100337.97
2022-12-11T04:00:21.626Z,100329.91
2022-12-11T04:03:13.550Z,100323.81
2022-12-11T04:05:48.735Z,100316.75
2022-12-11T04:08:17.353Z,100331.03
2022-12-11T04:10:45.825Z,100335.53
2022-12-11T04:13:14.623Z,100336.56
2022-12-11T04:15:43.250Z,100344.66
2022-12-11T04:18:29.982Z,100335.03
2022-12-11T04:21:17.495Z,100344.06
2022-12-11T04:24:04.044Z,100342.34
2022-12-11T04:26:32.339Z,100352.06
2022-12-11T04:29:00.690Z,100361.84
2022-12-11T04:31:30.922Z,100354.88
2022-12-11T04:33:59.313Z,100351.38
2022-12-11T04:36:27.740Z,100346.06
2022-12-11T04:38:55.990Z,100340.94
2022-12-11T04:41:24.229Z,100330.44
2022-12-11T04:43:53.023Z,100331.25
2022-12-11T04:46:23.717Z,100319.75
2022-12-11T04:48:57.255Z,100325.88
2022-12-11T04:51:27.419Z,100319.75
2022-12-11T04:53:56.365Z,100336.69
2022-12-11T04:56:24.682Z,100329.69
2022-12-11T04:58:53.497Z,100329.91
2022-12-11T05:01:24.257Z,100334.41
2022-12-11T05:03:52.932Z,100337.06
2022-12-11T05:06:21.334Z,100337.16
2022-12-11T05:08:49.673Z,100348.69
2022-12-11T05:11:18.620Z,100347.81
2022-12-11T05:13:47.259Z,100353.19
2022-12-11T05:16:17.571Z,100362.03
2022-12-11T05:18:46.350Z,100365.50
2022-12-11T05:21:16.544Z,100369.00
2022-12-11T05:23:44.879Z,100389.31
2022-12-11T05:26:17.929Z,100398.94
2022-12-11T05:28:47.366Z,100392.84
2022-12-11T05:31:21.679Z,100387.59
2022-12-11T05:33:51.269Z,100392.09
2022-12-11T05:36:26.264Z,100406.38
2022-12-11T05:38:55.267Z,100409.03
2022-12-11T05:41:26.500Z,100410.84
2022-12-11T05:43:54.951Z,100413.53
2022-12-11T05:46:28.629Z,100420.69
2022-12-11T05:49:02.426Z,100411.88
2022-12-11T05:51:31.897Z,100400.50
2022-12-11T05:54:00.369Z,100393.53
2022-12-11T05:56:31.409Z,100398.81
2022-12-11T05:59:01.181Z,100412.16
2022-12-11T06:01:34.016Z,100427.16
2022-12-11T06:04:03.099Z,100404.28
2022-12-11T06:06:31.739Z,100388.53
2022-12-11T06:09:01.285Z,100385.88
2022-12-11T06:11:32.124Z,100371.06
2022-12-11T06:14:02.334Z,100362.38
2022-12-11T06:16:30.755Z,100348.28
2022-12-11T06:18:59.549Z,100349.34
2022-12-11T06:21:31.466Z,100359.22
2022-12-11T06:24:02.143Z,100366.44
2022-12-11T06:26:31.046Z,100386.03
2022-12-11T06:28:59.524Z,100387.16
2022-12-11T06:31:28.022Z,100391.69
2022-12-11T06:33:56.941Z,100393.41
2022-12-11T06:36:26.102Z,100393.47
2022-12-11T06:38:56.486Z,100394.25
2022-12-11T06:41:24.971Z,100389.81
2022-12-11T06:43:53.445Z,100395.03
2022-12-11T06:46:22.639Z,100388.94
2022-12-11T06:48:51.529Z,100391.59
2022-12-11T06:51:23.049Z,100395.97
2022-12-11T06:53:57.451Z,100384.50
2022-12-11T06:56:26.258Z,100391.69
2022-12-11T06:58:54.885Z,100403.16
2022-12-11T07:01:27.060Z,100404.06
2022-12-11T07:03:57.767Z,100397.94
2022-12-11T07:06:27.960Z,100399.84
2022-12-11T07:08:56.645Z,100399.06
2022-12-11T07:11:25.007Z,100405.28
2022-12-11T07:13:53.287Z,100401.88
2022-12-11T07:16:21.740Z,100380.91
2022-12-11T07:18:51.690Z,100361.59
2022-12-11T07:21:22.282Z,100351.22
2022-12-11T07:23:51.646Z,100352.09
2022-12-11T07:26:23.207Z,100348.50
2022-12-11T07:28:51.880Z,100345.84
2022-12-11T07:31:27.038Z,100349.38
2022-12-11T07:34:03.525Z,100361.75
2022-12-11T07:36:32.646Z,100365.22
2022-12-11T07:39:02.155Z,100358.94
2022-12-11T07:41:30.562Z,100365.03
2022-12-11T07:44:01.093Z,100373.00
2022-12-11T07:46:32.781Z,100403.00
2022-12-11T07:49:04.329Z,100409.16
2022-12-11T07:51:36.489Z,100421.56
2022-12-11T07:54:11.755Z,100430.53
2022-12-11T07:56:43.669Z,100423.69
2022-12-11T07:59:12.625Z,100434.59
2022-12-11T08:01:41.747Z,100430.22
2022-12-11T08:04:12.803Z,100434.69
2022-12-11T08:06:41.761Z,100433.06
2022-12-11T08:09:21.065Z,100436.75
2022-12-11T08:11:53.281Z,100438.84
2022-12-11T08:14:22.059Z,100428.34
2022-12-11T08:16:50.770Z,100416.19
2022-12-11T08:19:19.204Z,100424.13
2022-12-11T08:21:47.853Z,100427.72
2022-12-11T08:24:21.234Z,100417.13
2022-12-11T08:26:50.244Z,100424.22
2022-12-11T08:29:18.774Z,100421.00
2022-12-11T08:31:47.205Z,100413.91
2022-12-11T08:34:15.843Z,100411.31
2022-12-11T08:36:45.239Z,100416.75
2022-12-11T08:39:13.602Z,100435.44
2022-12-11T08:41:42.910Z,100442.47
2022-12-11T08:44:16.698Z,100436.31
2022-12-11T08:46:45.445Z,100455.00
2022-12-11T08:49:13.768Z,100458.56
2022-12-11T08:51:42.097Z,100464.06
2022-12-11T08:54:12.325Z,100467.69
2022-12-11T08:56:40.806Z,100467.84
2022-12-11T08:59:09.301Z,100451.28
2022-12-11T09:01:37.780Z,100454.34
2022-12-11T09:04:06.097Z,100475.88
2022-12-11T09:06:34.684Z,100473.53
2022-12-11T09:09:03.849Z,100463.84
2022-12-11T09:11:34.884Z,100470.16
2022-12-11T09:14:07.292Z,100473.75
2022-12-11T09:16:41.124Z,100472.09
2022-12-11T09:19:14.090Z,100465.88
2022-12-11T09:21:43.844Z,100465.03
2022-12-11T09:24:13.454Z,100469.47
2022-12-11T09:26:42.727Z,100460.63
2022-12-11T09:29:13.288Z,100429.84
2022-12-11T09:31:42.111Z,100429.94
2022-12-11T09:34:13.157Z,100433.50
2022-12-11T09:36:43.485Z,100444.16
2022-12-11T09:39:13.769Z,100447.94
2022-12-11T09:41:51.614Z,100453.31
2022-12-11T09:44:38.570Z,100454.22
2022-12-11T09:47:24.798Z,100465.63
2022-12-11T09:50:18.783Z,100472.75
2022-12-11T09:52:55.690Z,100464.94
2022-12-11T09:55:26.991Z,100401.53
2022-12-11T09:58:21.125Z,100389.38
2022-12-11T10:01:28.023Z,100406.28
2022-12-11T10:04:28.496Z,100410.91
2022-12-11T10:07:22.358Z,100417.34
2022-12-11T10:10:03.210Z,100422.81
2022-12-11T10:12:43.199Z,100421.91
2022-12-11T10:15:28.339Z,100423.69
2022-12-11T10:18:04.978Z,100421.91
2022-12-11T10:20:40.146Z,100429.84
2022-12-11T10:23:11.660Z,100437.06
2022-12-11T10:25:58.406Z,100434.41
2022-12-11T10:28:29.404Z,100437.06
2022-12-11T10:31:33.484Z,100448.53
2022-12-11T10:34:09.445Z,100445.13
2022-12-11T10:36:40.669Z,100433.75
2022-12-11T10:39:20.979Z,100433.75
2022-12-11T10:41:52.005Z,100424.09
2022-12-11T10:44:21.923Z,100424.88
2022-12-11T10:47:11.335Z,100446.88
2022-12-11T10:49:44.004Z,100449.53
2022-12-11T10:52:21.079Z,100457.53
2022-12-11T10:54:57.924Z,100463.75
2022-12-11T10:57:40.661Z,100473.59
2022-12-11T11:00:31.339Z,100449.84
2022-12-11T11:03:00.484Z,100471.00
2022-12-11T11:05:38.680Z,100477.22
2022-12-11T11:08:22.465Z,100472.00
2022-12-11T11:10:56.760Z,100467.69
2022-12-11T11:13:27.363Z,100467.75
2022-12-11T11:16:13.503Z,100461.66
2022-12-11T11:18:44.480Z,100475.84
2022-12-11T11:21:21.109Z,100477.66
2022-12-11T11:23:53.304Z,100483.84
2022-12-11T11:26:23.847Z,100484.78
2022-12-11T11:28:56.629Z,100480.34
2022-12-11T11:31:35.751Z,100472.47
2022-12-11T11:34:08.965Z,100470.72
2022-12-11T11:36:39.442Z,100471.72
2022-12-11T11:39:29.442Z,100467.38
2022-12-11T11:42:15.744Z,100462.16
2022-12-11T11:44:51.512Z,100467.44
2022-12-11T11:47:31.699Z,100475.50
2022-12-11T11:50:23.514Z,100478.31
2022-12-11T11:53:03.659Z,100474.00
2022-12-11T11:55:43.845Z,100479.47
2022-12-11T11:58:18.565Z,100484.81
2022-12-11T12:00:46.563Z,100491.00
2022-12-11T12:03:19.559Z,100494.63
2022-12-11T12:06:12.037Z,100497.38
2022-12-11T12:09:15.040Z,100490.47
2022-12-11T12:12:13.609Z,100494.03
2022-12-11T12:15:00.185Z,100524.06
2022-12-11T12:17:41.078Z,100530.19
2022-12-11T12:20:09.925Z,100542.53
2022-12-11T12:22:58.244Z,100530.16
2022-12-11T12:25:50.089Z,100538.16
2022-12-11T12:28:36.300Z,100547.00
2022-12-11T12:31:26.427Z,100541.94
2022-12-11T12:34:10.968Z,100527.88
2022-12-11T12:36:58.399Z,100531.44
2022-12-11T12:39:38.858Z,100541.97
2022-12-11T12:42:38.889Z,100553.47
2022-12-11T12:45:16.140Z,100562.28
2022-12-11T12:47:53.178Z,100551.78
2022-12-11T12:50:25.760Z,100538.53
2022-12-11T12:52:55.823Z,100551.69
2022-12-11T12:55:30.458Z,100555.22
2022-12-11T12:58:02.884Z,100574.47
2022-12-11T13:00:33.856Z,100576.22
2022-12-11T13:03:21.898Z,100572.63
2022-12-11T13:06:29.794Z,100563.81
2022-12-11T13:08:59.204Z,100560.19
2022-12-11T13:11:35.915Z,100558.44
2022-12-11T13:14:23.850Z,100565.53
2022-12-11T13:16:54.086Z,100558.69
2022-12-11T13:19:26.400Z,100564.97
2022-12-11T13:22:04.958Z,100575.56
2022-12-11T13:24:35.060Z,100569.41
2022-12-11T13:27:24.481Z,100572.22
2022-12-11T13:29:52.920Z,100574.97
2022-12-11T13:32:32.164Z,100583.72
2022-12-11T13:35:05.879Z,100583.66
2022-12-11T13:37:40.484Z,100585.38
2022-12-11T13:40:28.816Z,100589.78
2022-12-11T13:43:07.499Z,100595.94
2022-12-11T13:45:52.392Z,100595.03
2022-12-11T13:48:24.324Z,100589.84
2022-12-11T13:50:54.568Z,100597.72
2022-12-11T13:53:24.179Z,100597.66
2022-12-11T13:56:02.244Z,100601.00
2022-12-11T13:58:35.201Z,100601.88
2022-12-11T14:01:06.626Z,100604.50
2022-12-11T14:03:36.649Z,100607.16
2022-12-11T14:06:05.739Z,100614.06
2022-12-11T14:08:41.059Z,100612.22
2022-12-11T14:11:09.609Z,100617.41
2022-12-11T14:13:41.767Z,100622.63
2022-12-11T14:16:10.274Z,100636.66
2022-12-11T14:18:39.049Z,100642.84
2022-12-11T14:21:08.165Z,100662.16
2022-12-11T14:23:38.559Z,100684.16
2022-12-11T14:26:23.205Z,100679.81
2022-12-11T14:28:52.481Z,100688.72
2022-12-11T14:31:42.988Z,100693.34
2022-12-11T14:34:22.538Z,100710.16
2022-12-11T14:36:51.636Z,100705.00
2022-12-11T14:39:45.769Z,100699.66
2022-12-11T14:42:21.123Z,100718.19
2022-12-11T14:45:01.609Z,100713.69
2022-12-11T14:47:35.521Z,100720.72
2022-12-11T14:50:15.459Z,100711.91
2022-12-11T14:52:49.761Z,100720.72
2022-12-11T14:55:26.366Z,100724.22
2022-12-11T14:57:59.067Z,100720.78
2022-12-11T15:00:31.550Z,100718.19
2022-12-11T15:03:25.725Z,100723.44
2022-12-11T15:05:56.941Z,100732.28
2022-12-11T15:08:35.524Z,100729.69
2022-12-11T15:11:13.724Z,100745.72
2022-12-11T15:14:04.318Z,100756.28
2022-12-11T15:16:39.300Z,100762.50
2022-12-11T15:19:08.000Z,100773.16
2022-12-11T15:21:39.159Z,100782.91
2022-12-11T15:24:08.019Z,100789.91
2022-12-11T15:26:45.766Z,100789.06
2022-12-11T15:29:39.142Z,100786.41
2022-12-11T15:32:10.244Z,100784.63
2022-12-11T15:35:00.860Z,100788.06
2022-12-11T15:37:34.069Z,100788.03
2022-12-11T15:40:04.961Z,100773.09
2022-12-11T15:42:35.737Z,100783.66
2022-12-11T15:45:07.977Z,100789.72
2022-12-11T15:47:36.234Z,100791.44
2022-12-11T15:50:21.170Z,100793.22
2022-12-11T15:52:50.408Z,100795.88
2022-12-11T15:55:19.254Z,100799.34
2022-12-11T15:58:00.486Z,100801.91
2022-12-11T16:00:29.135Z,100802.72
2022-12-11T16:02:58.486Z,100801.78
2022-12-11T16:05:28.207Z,100817.59
2022-12-11T16:08:00.248Z,100816.75
2022-12-11T16:10:28.745Z,100828.06
2022-12-11T16:13:00.304Z,100829.75
2022-12-11T16:15:28.884Z,100821.78
2022-12-11T16:18:02.758Z,100827.94
2022-12-11T16:20:32.281Z,100838.38
2022-12-11T16:23:00.754Z,100847.97
2022-12-11T16:25:29.756Z,100847.03
2022-12-11T16:28:02.361Z,100850.47
2022-12-11T16:30:31.074Z,100869.78
2022-12-11T16:32:59.502Z,100878.59
2022-12-11T16:35:28.042Z,100880.31
2022-12-11T16:37:56.770Z,100888.22
2022-12-11T16:40:25.250Z,100890.03
2022-12-11T16:42:53.730Z,100895.38
2022-12-11T16:45:27.206Z,100890.94
2022-12-11T16:47:56.075Z,100906.75
2022-12-11T16:50:25.124Z,100916.31
2022-12-11T16:52:53.415Z,100923.34
2022-12-11T16:55:23.204Z,100927.00
2022-12-11T16:57:51.590Z,100938.50
2022-12-11T17:00:20.639Z,100941.19
2022-12-11T17:02:49.471Z,100949.16
2022-12-11T17:05:17.924Z,100953.56
2022-12-11T17:07:46.236Z,100959.78
2022-12-11T17:10:14.725Z,100969.59
2022-12-11T17:12:43.050Z,100970.72
2022-12-11T17:15:12.340Z,100977.97
2022-12-11T17:17:40.945Z,100964.91
2022-12-11T17:20:10.635Z,100969.28
2022-12-11T17:22:38.974Z,100968.34
2022-12-11T17:25:08.768Z,100982.38
2022-12-11T17:27:37.291Z,100981.47
2022-12-11T17:30:06.399Z,100981.47
2022-12-11T17:32:34.974Z,100995.53
2022-12-11T17:35:03.334Z,100996.38
2022-12-11T17:37:32.025Z,100991.06
2022-12-11T17:40:00.336Z,100991.94
2022-12-11T17:42:28.650Z,101007.72
2022-12-11T17:44:56.990Z,100992.00
2022-12-11T17:47:25.679Z,100986.75
2022-12-11T17:49:53.929Z,100987.56
2022-12-11T17:52:22.357Z,100992.75
2022-12-11T17:54:50.745Z,100994.47
2022-12-11T17:57:19.209Z,100988.25
2022-12-11T17:59:47.618Z,100983.94
2022-12-11T18:02:16.179Z,100980.47
2022-12-11T18:04:44.519Z,100977.78
2022-12-11T18:07:12.806Z,100962.72
2022-12-11T18:09:41.880Z,100969.63
2022-12-11T18:12:11.239Z,100962.44
2022-12-11T18:14:39.644Z,100971.09
2022-12-11T18:17:07.905Z,100971.78
2022-12-11T18:19:37.401Z,100980.44
2022-12-11T18:22:08.456Z,100975.91
2022-12-11T18:24:36.674Z,100978.50
2022-12-11T18:27:05.007Z,100985.53
2022-12-11T18:29:33.301Z,100983.88
2022-12-11T18:32:01.606Z,100984.78
2022-12-11T18:34:29.887Z,100992.66
2022-12-11T18:36:58.219Z,100997.09
2022-12-11T18:39:26.558Z,100999.75
2022-12-11T18:42:24.292Z,100997.13
2022-12-11T18:44:44.325Z,100995.31
2022-12-11T18:47:12.762Z,100998.81
2022-12-11T18:49:41.127Z,100986.47
2022-12-11T18:52:09.409Z,100982.94
2022-12-11T18:54:38.205Z,100972.31
2022-12-11T18:57:06.565Z,100968.78
2022-12-11T18:59:35.505Z,100969.72
2022-12-11T19:02:04.005Z,100975.91
2022-12-11T19:04:32.382Z,100977.66
2022-12-11T19:07:01.921Z,100968.81
2022-12-11T19:09:34.000Z,100963.41
2022-12-11T19:12:06.734Z,100957.00
2022-12-11T19:14:35.012Z,100955.19
2022-12-11T19:17:04.324Z,100952.50
2022-12-11T19:19:32.828Z,100944.44
2022-12-11T19:22:01.384Z,100937.41
2022-12-11T19:24:29.723Z,100949.59
2022-12-11T19:26:58.729Z,100943.31
2022-12-11T19:29:30.349Z,100939.69
2022-12-11T19:31:58.745Z,100937.78
2022-12-11T19:34:27.204Z,100940.19
2022-12-11T19:36:57.128Z,100935.53
2022-12-11T19:39:25.834Z,100927.34
2022-12-11T19:41:54.082Z,100920.03
2022-12-11T19:44:22.385Z,100908.16
2022-12-11T19:46:51.400Z,100910.53
2022-12-11T19:49:19.801Z,100906.91
2022-12-11T19:51:48.388Z,100896.16
2022-12-11T19:54:18.525Z,100895.94
2022-12-11T19:56:47.044Z,100891.31
2022-12-11T19:59:17.687Z,100888.41
2022-12-11T20:01:48.997Z,100885.63
2022-12-11T20:04:18.726Z,100881.06
2022-12-11T20:06:48.300Z,100879.16
2022-12-11T20:09:17.203Z,100882.47
2022-12-11T20:11:46.589Z,100887.75
2022-12-11T20:14:26.742Z,100882.22
2022-12-11T20:17:13.862Z,100875.13
2022-12-11T20:19:44.122Z,100878.59
2022-12-11T20:22:12.941Z,100878.72
2022-12-11T20:24:41.451Z,100881.41
2022-12-11T20:27:10.549Z,100875.25
2022-12-11T20:29:39.779Z,100876.00
2022-12-11T20:32:08.403Z,100876.94
2022-12-11T20:34:36.739Z,100876.00
2022-12-11T20:37:05.163Z,100874.09
2022-12-11T20:39:33.599Z,100873.09
2022-12-11T20:42:05.634Z,100868.41
2022-12-11T20:44:33.964Z,100862.13
2022-12-11T20:47:02.426Z,100871.00
2022-12-11T20:49:30.759Z,100867.41
2022-12-11T20:52:00.534Z,100854.09
2022-12-11T20:54:29.000Z,100852.97
2022-12-11T20:56:57.329Z,100849.97
2022-12-11T20:59:27.240Z,100848.03
2022-12-11T21:01:55.759Z,100844.28
2022-12-11T21:04:24.666Z,100845.94
2022-12-11T21:07:02.049Z,100834.34
2022-12-11T21:09:30.599Z,100844.81
2022-12-11T21:12:01.763Z,100833.25
2022-12-11T21:14:32.025Z,100827.81
2022-12-11T21:17:01.462Z,100822.72
2022-12-11T21:19:29.943Z,100822.13
2022-12-11T21:21:59.240Z,100826.66
2022-12-11T21:24:29.944Z,100823.44
2022-12-11T21:26:59.989Z,100827.31
2022-12-11T21:29:30.441Z,100822.13
2022-12-11T21:31:59.298Z,100820.34
2022-12-11T21:34:28.202Z,100822.66
2022-12-11T21:36:57.803Z,100824.06
2022-12-11T21:39:29.168Z,100813.25
2022-12-11T21:41:59.079Z,100804.28
2022-12-11T21:47:16.659Z,100807.06
2022-12-11T21:49:45.146Z,100804.19
2022-12-11T21:52:15.441Z,100804.06
2022-12-11T21:54:43.858Z,100799.06
2022-12-11T21:57:12.215Z,100805.44
2022-12-11T21:59:40.529Z,100803.06
2022-12-11T22:02:11.422Z,100805.06
2022-12-11T22:04:40.364Z,100800.16
2022-12-11T22:07:09.141Z,100805.69
2022-12-11T22:09:37.451Z,100790.00
2022-12-11T22:12:06.428Z,100789.31
2022-12-11T22:14:35.553Z,100787.63
2022-12-11T22:17:04.101Z,100792.97
2022-12-11T22:19:32.864Z,100791.25
2022-12-11T22:22:01.330Z,100791.34
2022-12-11T22:24:29.694Z,100780.19
2022-12-11T22:26:58.113Z,100779.47
2022-12-11T22:29:26.516Z,100782.97
2022-12-11T22:31:55.484Z,100777.75
2022-12-11T22:34:23.993Z,100783.94
2022-12-11T22:36:52.401Z,100783.97
2022-12-11T22:39:20.692Z,100782.28
2022-12-11T22:41:49.043Z,100779.69
2022-12-11T22:44:20.201Z,100778.03
2022-12-11T22:46:50.465Z,100771.81
2022-12-11T22:49:20.414Z,100771.81
2022-12-11T22:51:49.011Z,100780.59
2022-12-11T22:54:17.632Z,100784.06
2022-12-11T22:56:45.965Z,100781.41
2022-12-11T22:59:14.284Z,100776.97
2022-12-11T23:01:42.741Z,100783.13
2022-12-11T23:04:11.238Z,100780.34
2022-12-11T23:06:39.958Z,100774.91
2022-12-11T23:09:08.618Z,100774.03
2022-12-11T23:11:39.078Z,100776.63
2022-12-11T23:14:09.119Z,100776.69
2022-12-11T23:16:37.648Z,100767.09
2022-12-11T23:19:06.124Z,100760.25
2022-12-11T23:21:34.763Z,100753.38
2022-12-11T23:24:03.400Z,100764.25
2022-12-11T23:26:32.644Z,100755.50
2022-12-11T23:29:02.238Z,100758.28
2022-12-11T23:31:31.152Z,100766.28
2022-12-11T23:33:59.699Z,100761.84
2022-12-11T23:36:29.480Z,100760.06
2022-12-11T23:38:57.794Z,100766.16
2022-12-11T23:41:26.993Z,100772.34
2022-12-11T23:43:55.408Z,100771.47
2022-12-11T23:46:26.022Z,100791.06
2022-12-11T23:48:55.237Z,100793.06
2022-12-11T23:51:26.418Z,100783.50
2022-12-11T23:53:54.858Z,100790.75
2022-12-11T23:56:29.610Z,100803.16
2022-12-11T23:58:58.859Z,100796.22
